Time;durP1;ratioP1;P1;durP2;ratioP2;P2;SDS_P1;SDS_P2;PMS_P1;PMS_P2;Temp;Humidity;BMP_temperature;BMP_pressure;BME280_temperature;BME280_humidity;BME280_pressure;Samples;Min_cycle;Max_cycle;Signal;HPM_P1;HPM_P2
2021/12/07 00:02:22;;;;;;;22.45;21.25;;;3.70;78.50;;;;;;5014685;28;20198;-73
2021/12/07 00:04:49;;;;;;;25.05;23.55;;;3.70;79.10;;;;;;5014555;28;20240;-73
2021/12/07 00:07:17;;;;;;;23.88;22.50;;;3.70;78.30;;;;;;5014693;28;20202;-73
2021/12/07 00:09:49;;;;;;;22.92;21.63;;;3.70;78.70;;;;;;5014457;28;20674;-73
2021/12/07 00:12:16;;;;;;;23.23;21.83;;;3.60;78.70;;;;;;5014585;28;20194;-73
2021/12/07 00:14:44;;;;;;;23.00;21.75;;;3.70;78.40;;;;;;5014439;28;20217;-72
2021/12/07 00:17:11;;;;;;;22.98;21.70;;;3.70;78.20;;;;;;5014537;28;20209;-73
2021/12/07 00:19:39;;;;;;;23.17;21.88;;;3.80;78.10;;;;;;5014459;28;20202;-73
2021/12/07 00:22:08;;;;;;;22.83;21.48;;;3.90;77.60;;;;;;5014268;28;20208;-73
2021/12/07 00:24:35;;;;;;;22.88;21.60;;;3.90;77.50;;;;;;5014254;28;20226;-73
2021/12/07 00:27:02;;;;;;;23.35;22.05;;;3.90;77.40;;;;;;5014327;28;20208;-73
2021/12/07 00:29:30;;;;;;;23.75;22.35;;;3.90;77.30;;;;;;5014216;28;20240;-73
2021/12/07 00:32:16;;;;;;;23.13;21.83;;;3.90;77.90;;;;;;5014326;28;20270;-73
2021/12/07 00:34:57;;;;;;;22.42;21.13;;;4.00;77.00;;;;;;5014052;28;20228;-73
2021/12/07 00:37:26;;;;;;;23.02;21.55;;;4.10;77.00;;;;;;5013776;28;20197;-73
2021/12/07 00:39:53;;;;;;;23.42;22.05;;;4.10;76.50;;;;;;5013955;28;20241;-73
2021/12/07 00:42:20;;;;;;;22.90;21.60;;;4.10;76.80;;;;;;5013951;28;20220;-73
2021/12/07 00:44:47;;;;;;;23.35;22.05;;;4.00;77.30;;;;;;5013322;28;20218;-73
2021/12/07 00:47:15;;;;;;;22.60;21.30;;;4.00;77.70;;;;;;5014069;28;20202;-72
2021/12/07 00:49:43;;;;;;;23.00;21.77;;;4.00;78.10;;;;;;5013952;28;20224;-73
2021/12/07 00:52:11;;;;;;;22.35;21.15;;;4.00;78.80;;;;;;5013812;28;20210;-73
2021/12/07 00:54:38;;;;;;;22.38;21.15;;;4.00;79.70;;;;;;5013415;28;20222;-72
2021/12/07 00:57:05;;;;;;;21.90;20.60;;;4.00;80.20;;;;;;5013824;28;20220;-73
2021/12/07 00:59:33;;;;;;;22.75;21.42;;;4.00;80.70;;;;;;5013675;28;20198;-73
2021/12/07 01:02:00;;;;;;;43.45;22.35;;;3.90;81.50;;;;;;5013555;28;20579;-73
2021/12/07 01:04:29;;;;;;;21.65;20.25;;;3.80;82.80;;;;;;5013325;28;20232;-72
2021/12/07 01:07:04;;;;;;;21.67;20.27;;;3.80;83.30;;;;;;5013565;28;20202;-72
2021/12/07 01:09:39;;;;;;;21.80;20.40;;;3.70;83.60;;;;;;5013485;28;20575;-73
2021/12/07 01:25:57;;;;;;;20.52;19.23;;;3.60;85.30;;;;;;5013455;28;20201;-73
2021/12/07 01:28:31;;;;;;;21.67;20.10;;;3.50;85.80;;;;;;5013108;28;20204;-73
2021/12/07 01:31:06;;;;;;;21.00;19.80;;;3.50;85.90;;;;;;5013326;28;20281;-72
2021/12/07 01:33:53;;;;;;;21.02;19.73;;;3.60;86.10;;;;;;5013030;28;20217;-72
2021/12/07 01:43:17;;;;;;;21.10;19.70;;;3.50;86.50;;;;;;5089744;27;20519;-71
2021/12/07 01:46:03;;;;;;;20.25;19.05;;;3.40;86.80;;;;;;5069720;28;20200;-71
2021/12/07 01:51:39;;;;;;;19.88;18.77;;;3.40;87.40;;;;;;5043811;28;20186;-71
2021/12/07 01:59:37;;;;;;;18.50;17.50;;;3.50;87.30;;;;;;5069610;28;20199;-72
2021/12/07 02:02:07;;;;;;;20.83;18.90;;;3.60;87.10;;;;;;5069373;28;20296;-71
2021/12/07 02:04:34;;;;;;;18.65;17.60;;;3.70;87.00;;;;;;5069219;28;20216;-71
2021/12/07 02:07:01;;;;;;;19.50;18.40;;;3.70;86.90;;;;;;5069363;28;20217;-71
2021/12/07 02:09:28;;;;;;;18.55;17.48;;;3.70;87.40;;;;;;5069331;28;20195;-71
2021/12/07 02:11:59;;;;;;;19.13;18.08;;;3.80;87.40;;;;;;5069297;28;20200;-71
2021/12/07 02:14:26;;;;;;;19.30;18.20;;;3.70;87.20;;;;;;5068968;28;20912;-71
2021/12/07 02:16:57;;;;;;;19.35;18.25;;;3.70;87.80;;;;;;5069234;28;20561;-71
2021/12/07 02:19:25;;;;;;;19.38;18.13;;;3.70;87.90;;;;;;5069116;28;20220;-71
2021/12/07 02:21:55;;;;;;;18.77;17.77;;;3.70;88.00;;;;;;5068987;28;20220;-72
2021/12/07 02:24:22;;;;;;;19.63;18.35;;;3.70;88.10;;;;;;5068731;28;20567;-72
2021/12/07 02:26:49;;;;;;;18.65;17.65;;;3.70;88.30;;;;;;5069023;28;20202;-71
2021/12/07 02:29:17;;;;;;;18.55;17.55;;;3.70;88.40;;;;;;5068978;28;20204;-71
2021/12/07 02:31:45;;;;;;;18.65;17.65;;;3.70;89.00;;;;;;5068754;28;20200;-72
2021/12/07 02:34:12;;;;;;;18.92;17.92;;;3.70;88.90;;;;;;5068641;28;20303;-72
2021/12/07 02:36:41;;;;;;;19.20;18.10;;;3.70;88.70;;;;;;5068799;28;20226;-71
2021/12/07 02:39:12;;;;;;;18.38;17.38;;;3.80;88.60;;;;;;5068098;28;20250;-72
2021/12/07 02:41:40;;;;;;;19.42;18.35;;;3.80;88.90;;;;;;5068447;28;20302;-72
2021/12/07 02:44:08;;;;;;;19.10;17.98;;;3.80;88.60;;;;;;5068047;28;20248;-71
2021/12/07 02:46:35;;;;;;;18.70;17.80;;;3.80;88.70;;;;;;5068574;28;20227;-71
2021/12/07 02:49:02;;;;;;;18.15;17.25;;;3.80;88.80;;;;;;5068320;28;20200;-71
2021/12/07 02:51:29;;;;;;;18.42;17.40;;;3.80;88.80;;;;;;5068414;28;20200;-71
2021/12/07 02:53:57;;;;;;;19.13;18.10;;;3.90;88.90;;;;;;5054281;28;20223;-71
2021/12/07 02:56:26;;;;;;;18.13;17.13;;;3.90;88.40;;;;;;5055083;28;20192;-72
2021/12/07 02:58:57;;;;;;;18.30;17.30;;;3.90;88.60;;;;;;5055101;28;20627;-71
2021/12/07 03:01:29;;;;;;;18.40;17.40;;;3.90;89.10;;;;;;5054989;28;20583;-71
2021/12/07 03:04:02;;;;;;;18.40;17.40;;;3.90;89.10;;;;;;5054934;28;20224;-71
2021/12/07 03:06:45;;;;;;;18.45;17.55;;;3.80;90.20;;;;;;5055073;28;20208;-71
2021/12/07 03:26:05;;;;;;;17.23;16.38;;;4.00;90.20;;;;;;5054863;28;20196;-71
2021/12/07 03:28:36;;;;;;;18.30;17.30;;;4.00;90.90;;;;;;5054579;28;20658;-71
2021/12/07 03:31:04;;;;;;;17.67;16.77;;;3.90;92.40;;;;;;5054479;28;20235;-71
2021/12/07 03:33:31;;;;;;;20.10;18.10;;;4.00;91.90;;;;;;5054252;28;20231;-71
2021/12/07 03:35:58;;;;;;;17.85;16.92;;;3.90;92.10;;;;;;5054421;28;20459;-72
2021/12/07 03:38:25;;;;;;;17.83;16.83;;;4.00;92.10;;;;;;5053939;28;20203;-72
2021/12/07 03:40:52;;;;;;;16.38;15.57;;;3.90;92.00;;;;;;5054109;28;20221;-71
2021/12/07 03:43:19;;;;;;;18.17;16.92;;;3.90;92.70;;;;;;5053798;28;20216;-72
2021/12/07 03:45:48;;;;;;;18.10;17.17;;;3.90;92.60;;;;;;5054285;28;20207;-71
2021/12/07 03:48:16;;;;;;;16.70;15.90;;;3.90;92.20;;;;;;5054150;28;20230;-72
2021/12/07 03:50:43;;;;;;;17.17;16.27;;;3.80;91.90;;;;;;5054096;28;20279;-71
2021/12/07 03:53:11;;;;;;;17.55;16.58;;;3.80;92.10;;;;;;5053793;28;20689;-71
2021/12/07 03:55:38;;;;;;;17.40;16.60;;;3.80;91.70;;;;;;5054039;28;20193;-71
2021/12/07 03:58:06;;;;;;;18.75;17.63;;;3.80;92.10;;;;;;5054014;28;20224;-71
2021/12/07 04:00:36;;;;;;;18.00;17.20;;;3.90;91.90;;;;;;5053931;28;20275;-71
2021/12/07 04:03:08;;;;;;;23.63;17.33;;;4.00;92.00;;;;;;5053603;28;20213;-72
2021/12/07 04:05:36;;;;;;;16.40;15.60;;;4.00;91.90;;;;;;5052975;28;20201;-72
2021/12/07 04:08:04;;;;;;;18.23;16.95;;;4.00;92.20;;;;;;5053926;28;20227;-71
2021/12/07 04:10:31;;;;;;;17.17;16.27;;;4.00;92.00;;;;;;5053798;28;20201;-72
2021/12/07 04:12:58;;;;;;;17.55;16.67;;;4.00;92.20;;;;;;5053421;28;20212;-72
2021/12/07 04:15:25;;;;;;;17.80;16.83;;;4.10;91.60;;;;;;5053640;28;20207;-72
2021/12/07 04:17:52;;;;;;;18.60;17.60;;;4.10;91.50;;;;;;5053731;28;20197;-71
2021/12/07 04:20:22;;;;;;;17.40;16.30;;;4.20;91.60;;;;;;5053670;28;20203;-71
2021/12/07 04:22:48;;;;;;;16.58;15.68;;;4.20;91.20;;;;;;5053270;28;20560;-72
2021/12/07 04:25:17;;;;;;;17.17;16.27;;;4.20;91.30;;;;;;5053453;28;20197;-72
2021/12/07 04:27:46;;;;;;;23.50;16.90;;;4.20;91.60;;;;;;5053344;28;20287;-72
2021/12/07 04:30:16;;;;;;;17.88;16.50;;;4.20;91.70;;;;;;5053281;28;20193;-72
2021/12/07 04:32:44;;;;;;;17.88;16.88;;;4.20;92.10;;;;;;5053096;28;20197;-71
2021/12/07 04:35:14;;;;;;;17.15;16.25;;;4.30;91.90;;;;;;5053243;28;20205;-72
2021/12/07 04:37:42;;;;;;;17.92;16.95;;;4.20;91.70;;;;;;5052937;28;20295;-72
2021/12/07 04:40:13;;;;;;;18.20;17.20;;;4.20;91.30;;;;;;5052963;28;20201;-72
2021/12/07 04:42:41;;;;;;;20.15;18.73;;;4.10;91.20;;;;;;5052622;28;20718;-72
2021/12/07 04:45:13;;;;;;;20.33;19.15;;;4.20;91.20;;;;;;5053104;28;20261;-72
2021/12/07 04:47:51;;;;;;;18.25;17.35;;;4.20;91.10;;;;;;5053298;28;20202;-72
2021/12/07 04:58:25;;;;;;;19.75;18.75;;;4.30;93.50;;;;;;5019636;28;20257;-72
2021/12/07 05:00:52;;;;;;;19.15;18.25;;;4.20;92.00;;;;;;5052808;28;20674;-71
2021/12/07 05:03:19;;;;;;;18.60;17.70;;;4.10;91.60;;;;;;5052682;28;20216;-72
2021/12/07 05:05:49;;;;;;;18.75;17.75;;;3.90;91.80;;;;;;5052870;28;20612;-72
2021/12/07 05:08:31;;;;;;;18.67;17.73;;;3.90;92.30;;;;;;5052866;28;20201;-72
2021/12/07 05:13:54;;;;;;;19.60;18.50;;;4.00;91.90;;;;;;5052437;28;20582;-71
2021/12/07 05:25:09;;;;;;;152.95;26.75;;;3.90;93.30;;;;;;5052502;28;20215;-71
2021/12/07 05:38:34;;;;;;;19.27;17.80;;;4.00;92.90;;;;;;5052077;28;20191;-72
2021/12/07 05:41:06;;;;;;;19.75;18.65;;;4.00;92.80;;;;;;5052264;28;20231;-72
2021/12/07 05:43:33;;;;;;;18.67;17.67;;;3.90;92.40;;;;;;5051850;28;20559;-72
2021/12/07 05:46:00;;;;;;;20.40;18.73;;;4.00;91.80;;;;;;5052396;28;20200;-71
2021/12/07 05:48:26;;;;;;;20.15;17.75;;;4.00;91.50;;;;;;5052145;28;20547;-72
2021/12/07 05:50:54;;;;;;;18.10;17.00;;;3.90;91.70;;;;;;5052094;28;20201;-72
2021/12/07 05:53:21;;;;;;;18.15;16.95;;;3.90;91.80;;;;;;5051912;28;20213;-70
2021/12/07 05:55:48;;;;;;;17.63;16.52;;;3.80;91.50;;;;;;5052165;28;20204;-71
2021/12/07 05:58:19;;;;;;;17.38;16.38;;;3.80;91.60;;;;;;5052179;28;20295;-71
2021/12/07 06:00:47;;;;;;;16.90;15.90;;;3.80;91.20;;;;;;5052157;28;20257;-71
2021/12/07 06:03:14;;;;;;;49.55;19.98;;;3.90;91.50;;;;;;5051763;28;20304;-71
2021/12/07 06:05:43;;;;;;;17.85;16.85;;;4.00;91.30;;;;;;5051861;28;20219;-71
2021/12/07 06:08:10;;;;;;;17.42;16.35;;;3.90;91.90;;;;;;5052041;28;20196;-71
2021/12/07 06:10:37;;;;;;;18.10;17.00;;;4.00;91.60;;;;;;5052085;28;20654;-71
2021/12/07 06:13:04;;;;;;;18.38;17.17;;;4.00;91.30;;;;;;5051765;28;20255;-71
2021/12/07 06:15:35;;;;;;;17.75;16.75;;;3.90;91.50;;;;;;5052245;28;20201;-71
2021/12/07 06:18:03;;;;;;;17.20;16.25;;;4.00;91.50;;;;;;5052082;28;20200;-71
2021/12/07 06:20:30;;;;;;;19.00;17.80;;;3.90;91.70;;;;;;5051875;28;20193;-71
2021/12/07 06:22:57;;;;;;;740.83;96.82;;;4.00;91.40;;;;;;5051685;28;20224;-71
2021/12/07 06:25:25;;;;;;;17.63;16.73;;;4.10;93.40;;;;;;5051906;28;20200;-71
2021/12/07 06:27:52;;;;;;;21.20;19.90;;;4.10;90.80;;;;;;5053515;28;20207;-72
2021/12/07 06:30:19;;;;;;;19.10;17.70;;;4.10;90.50;;;;;;5055650;28;20197;-72
2021/12/07 06:32:47;;;;;;;19.40;18.20;;;4.10;90.30;;;;;;5055279;28;20288;-71
2021/12/07 06:35:14;;;;;;;17.98;17.00;;;4.10;90.20;;;;;;5055656;28;20653;-72
2021/12/07 06:37:41;;;;;;;21.25;19.58;;;4.10;90.30;;;;;;5055348;28;20282;-72
2021/12/07 06:40:11;;;;;;;21.38;19.52;;;4.10;90.20;;;;;;5055565;28;20201;-72
2021/12/07 06:42:39;;;;;;;19.15;18.15;;;4.00;90.60;;;;;;5055045;28;20651;-72
2021/12/07 06:45:07;;;;;;;19.23;17.92;;;4.00;90.40;;;;;;5055092;28;20692;-72
2021/12/07 06:47:34;;;;;;;17.58;16.48;;;4.10;91.00;;;;;;5055508;28;20288;-72
2021/12/07 06:50:03;;;;;;;19.80;18.70;;;4.10;91.90;;;;;;5055395;28;20254;-72
2021/12/07 06:52:30;;;;;;;20.65;19.15;;;4.20;92.10;;;;;;5055207;28;20292;-71
2021/12/07 06:54:58;;;;;;;108.38;25.92;;;4.20;91.30;;;;;;5055183;28;20224;-71
2021/12/07 06:57:25;;;;;;;19.58;18.10;;;4.20;91.60;;;;;;5055247;28;20208;-72
2021/12/07 06:59:52;;;;;;;19.60;18.13;;;4.20;92.90;;;;;;5055189;28;20236;-72
2021/12/07 07:02:20;;;;;;;20.58;19.35;;;4.20;91.30;;;;;;5055003;28;20277;-72
2021/12/07 07:04:47;;;;;;;19.08;17.98;;;4.10;90.40;;;;;;5054833;28;20219;-72
2021/12/07 07:07:16;;;;;;;18.60;17.50;;;4.10;90.80;;;;;;5055038;28;20688;-72
2021/12/07 07:09:43;;;;;;;19.48;18.23;;;4.20;90.90;;;;;;5054896;28;20749;-72
2021/12/07 07:12:10;;;;;;;20.40;18.90;;;4.20;91.00;;;;;;5054747;28;20654;-71
2021/12/07 07:14:37;;;;;;;368.05;52.45;;;4.30;90.70;;;;;;5054647;28;20216;-72
2021/12/07 07:17:05;;;;;;;27.05;24.50;;;4.40;95.20;;;;;;5054802;28;20233;-72
2021/12/07 07:19:31;;;;;;;26.70;24.42;;;4.40;94.70;;;;;;5054826;28;20193;-72
2021/12/07 07:22:01;;;;;;;21.08;19.67;;;4.40;93.60;;;;;;5054709;28;20220;-72
2021/12/07 07:24:29;;;;;;;20.27;18.77;;;4.40;93.50;;;;;;5054353;28;20653;-72
2021/12/07 07:26:56;;;;;;;26.25;18.58;;;4.40;93.30;;;;;;5054543;28;20200;-72
2021/12/07 07:29:23;;;;;;;20.52;18.88;;;4.50;92.50;;;;;;5054587;28;20197;-72
2021/12/07 07:31:50;;;;;;;21.40;19.73;;;4.60;92.50;;;;;;5054616;28;20279;-72
2021/12/07 07:34:17;;;;;;;26.52;22.20;;;4.50;90.30;;;;;;5054239;28;20720;-72
2021/12/07 07:36:45;;;;;;;22.75;21.02;;;4.60;90.60;;;;;;5054428;28;20199;-72
2021/12/07 07:39:12;;;;;;;21.17;19.40;;;4.60;91.30;;;;;;5053669;28;20193;-72
2021/12/07 07:41:41;;;;;;;20.30;19.10;;;4.60;90.90;;;;;;5054205;28;20209;-72
2021/12/07 07:44:08;;;;;;;19.98;18.75;;;4.50;90.50;;;;;;5053695;28;20785;-72
2021/12/07 07:46:35;;;;;;;20.50;19.10;;;4.50;90.30;;;;;;5054339;28;20197;-72
2021/12/07 07:49:02;;;;;;;21.90;20.20;;;4.50;89.50;;;;;;5054207;28;20193;-72
2021/12/07 07:51:29;;;;;;;23.38;21.77;;;4.30;90.40;;;;;;5054192;28;20205;-72
2021/12/07 07:53:58;;;;;;;19.95;18.85;;;4.30;91.10;;;;;;5053799;28;20212;-72
2021/12/07 07:56:25;;;;;;;21.35;20.15;;;4.30;91.90;;;;;;5054205;28;20254;-72
2021/12/07 07:58:54;;;;;;;20.52;19.13;;;4.50;91.50;;;;;;5054110;28;20207;-72
2021/12/07 08:01:23;;;;;;;20.65;19.15;;;4.50;90.00;;;;;;5053948;28;20197;-72
2021/12/07 08:03:50;;;;;;;20.70;19.42;;;4.50;89.50;;;;;;5053628;28;20229;-72
2021/12/07 08:06:17;;;;;;;21.88;20.17;;;4.50;89.60;;;;;;5053913;28;20742;-72
2021/12/07 08:08:45;;;;;;;20.63;19.10;;;4.40;88.80;;;;;;5053778;28;20193;-72
2021/12/07 08:11:13;;;;;;;22.70;21.38;;;4.60;88.30;;;;;;5053948;28;20255;-71
2021/12/07 08:13:40;;;;;;;22.33;20.67;;;4.70;87.80;;;;;;5053624;28;20256;-72
2021/12/07 08:16:15;;;;;;;20.95;19.60;;;4.90;86.40;;;;;;5053848;28;20219;-72
2021/12/07 08:18:42;;;;;;;21.00;19.50;;;5.00;85.90;;;;;;5053726;28;20230;-72
2021/12/07 08:21:09;;;;;;;22.75;21.00;;;5.10;84.70;;;;;;5053475;28;20204;-72
2021/12/07 08:23:38;;;;;;;20.83;19.23;;;5.20;84.40;;;;;;5053340;28;20227;-72
2021/12/07 08:26:06;;;;;;;22.40;20.92;;;5.30;84.30;;;;;;5053605;28;20717;-72
2021/12/07 08:28:33;;;;;;;21.48;20.15;;;5.30;83.20;;;;;;5053717;28;20616;-71
2021/12/07 08:31:00;;;;;;;21.85;19.98;;;5.40;82.80;;;;;;5053745;28;20205;-72
2021/12/07 08:33:28;;;;;;;22.20;20.63;;;5.40;81.90;;;;;;5053122;28;20301;-71
2021/12/07 08:35:55;;;;;;;21.85;20.13;;;5.50;81.60;;;;;;5053691;28;20534;-72
2021/12/07 08:38:22;;;;;;;21.02;19.73;;;5.50;81.40;;;;;;5052917;28;20276;-71
2021/12/07 08:40:53;;;;;;;22.10;20.55;;;5.50;81.40;;;;;;5053278;28;20210;-71
2021/12/07 08:43:21;;;;;;;23.77;22.15;;;5.60;81.40;;;;;;5052519;28;20256;-71
2021/12/07 08:45:49;;;;;;;23.08;21.52;;;5.70;81.10;;;;;;5053390;28;20207;-71
2021/12/07 08:48:16;;;;;;;24.00;22.52;;;5.70;81.50;;;;;;5053388;28;20279;-72
2021/12/07 08:50:45;;;;;;;22.80;21.40;;;5.80;84.30;;;;;;5052585;28;20197;-71
2021/12/07 08:53:14;;;;;;;21.00;19.80;;;5.90;81.40;;;;;;5052906;28;20217;-71
2021/12/07 09:01:17;;;;;;;21.10;19.90;;;6.10;80.40;;;;;;5052980;28;20542;-72
2021/12/07 09:03:45;;;;;;;22.00;20.90;;;6.00;79.40;;;;;;5052570;28;20273;-71
2021/12/07 09:06:13;;;;;;;23.80;22.33;;;6.10;79.00;;;;;;5052917;28;20562;-72
2021/12/07 09:08:41;;;;;;;21.27;19.98;;;6.10;80.30;;;;;;5053159;28;20311;-72
2021/12/07 09:11:09;;;;;;;24.17;22.65;;;6.10;79.20;;;;;;5052795;28;20287;-72
2021/12/07 09:13:36;;;;;;;23.48;21.63;;;6.10;78.10;;;;;;5052442;28;20217;-71
2021/12/07 09:16:04;;;;;;;22.90;21.55;;;6.20;79.90;;;;;;5052713;28;20193;-72
2021/12/07 09:18:31;;;;;;;23.00;21.05;;;6.30;78.90;;;;;;5052599;28;20666;-72
2021/12/07 09:20:59;;;;;;;23.00;21.58;;;6.30;78.90;;;;;;5052652;28;20201;-72
2021/12/07 09:23:27;;;;;;;24.30;22.80;;;6.40;77.90;;;;;;5052188;28;20224;-72
2021/12/07 09:25:55;;;;;;;22.88;21.48;;;6.30;82.00;;;;;;5052540;28;20201;-72
2021/12/07 09:28:22;;;;;;;23.65;22.15;;;6.50;79.30;;;;;;5052483;28;20203;-72
2021/12/07 09:30:52;;;;;;;23.48;21.95;;;6.50;77.70;;;;;;5052449;28;20674;-72
2021/12/07 09:33:21;;;;;;;24.40;22.88;;;6.60;76.80;;;;;;5052304;28;20632;-72
2021/12/07 09:35:48;;;;;;;24.45;22.48;;;6.50;76.00;;;;;;5052500;28;20204;-72
2021/12/07 09:38:15;;;;;;;22.45;20.70;;;6.50;75.90;;;;;;5052082;28;20218;-72
2021/12/07 09:40:44;;;;;;;23.85;22.00;;;6.50;76.10;;;;;;5052197;28;20247;-72
2021/12/07 09:43:12;;;;;;;23.60;21.90;;;6.50;76.40;;;;;;5051726;28;20303;-72
2021/12/07 09:45:40;;;;;;;24.58;23.17;;;6.50;77.30;;;;;;5052442;28;20601;-72
2021/12/07 09:48:09;;;;;;;23.98;22.50;;;6.50;76.90;;;;;;5052355;28;20204;-72
2021/12/07 09:50:38;;;;;;;23.75;22.35;;;6.60;75.20;;;;;;5052275;28;20688;-71
2021/12/07 09:53:08;;;;;;;22.48;20.98;;;6.50;73.50;;;;;;5051923;28;20219;-72
2021/12/07 09:55:36;;;;;;;21.80;20.70;;;6.50;74.40;;;;;;5052259;28;20304;-72
2021/12/07 09:58:04;;;;;;;22.48;20.90;;;6.60;74.60;;;;;;5052318;28;20199;-72
2021/12/07 10:00:32;;;;;;;22.92;21.35;;;6.60;73.60;;;;;;5052200;28;20659;-71
2021/12/07 10:03:00;;;;;;;24.88;23.33;;;6.70;73.80;;;;;;5053596;28;20220;-72
2021/12/07 10:05:29;;;;;;;23.10;21.45;;;6.70;73.20;;;;;;5056364;28;20196;-71
2021/12/07 10:07:56;;;;;;;23.40;21.60;;;6.70;73.50;;;;;;5056305;28;20196;-72
2021/12/07 10:10:26;;;;;;;21.67;20.20;;;6.90;72.00;;;;;;5056105;28;20197;-72
2021/12/07 10:12:53;;;;;;;22.45;21.05;;;6.80;72.20;;;;;;5055861;28;20558;-72
2021/12/07 10:15:23;;;;;;;24.25;22.67;;;6.80;74.30;;;;;;5055875;28;20291;-72
2021/12/07 10:18:01;;;;;;;23.48;21.88;;;6.90;72.50;;;;;;5056265;28;20193;-72
2021/12/07 10:20:37;;;;;;;24.10;22.48;;;7.00;71.50;;;;;;5055895;28;20201;-72
2021/12/07 10:23:06;;;;;;;22.60;21.17;;;6.70;71.70;;;;;;5055679;28;20235;-72
2021/12/07 10:25:33;;;;;;;24.17;22.80;;;6.80;72.80;;;;;;5055909;28;20295;-72
2021/12/07 10:28:00;;;;;;;23.58;22.02;;;7.00;72.10;;;;;;5055821;28;20200;-72
2021/12/07 10:30:28;;;;;;;24.52;22.58;;;7.20;71.50;;;;;;5055670;28;20763;-72
2021/12/07 10:33:01;;;;;;;24.20;22.70;;;7.20;70.40;;;;;;5055552;28;20205;-72
2021/12/07 10:35:30;;;;;;;25.17;23.50;;;7.20;70.10;;;;;;5055723;28;20196;-72
2021/12/07 10:38:11;;;;;;;24.55;22.88;;;7.20;69.90;;;;;;5055271;28;20205;-72
2021/12/07 10:40:55;;;;;;;24.63;23.23;;;7.00;69.40;;;;;;5055559;28;20231;-72
2021/12/07 10:43:45;;;;;;;24.02;22.30;;;6.90;70.50;;;;;;5054877;28;20225;-72
2021/12/07 10:46:39;;;;;;;25.10;23.35;;;7.10;69.80;;;;;;5055620;28;20682;-72
2021/12/07 10:49:33;;;;;;;22.02;20.80;;;7.20;68.80;;;;;;5055389;28;20204;-72
2021/12/07 10:52:16;;;;;;;22.33;20.92;;;7.10;68.90;;;;;;5055339;28;20200;-72
2021/12/07 10:54:48;;;;;;;23.67;22.17;;;7.20;68.70;;;;;;5055020;28;20216;-72
2021/12/07 10:57:18;;;;;;;23.35;22.05;;;7.20;70.90;;;;;;5055496;28;20200;-72
2021/12/07 10:59:56;;;;;;;25.17;23.73;;;7.20;71.10;;;;;;5055238;28;20211;-72
2021/12/07 11:02:27;;;;;;;24.98;23.30;;;7.10;68.50;;;;;;5055201;28;20211;-72
2021/12/07 11:04:54;;;;;;;24.20;22.88;;;7.20;69.60;;;;;;5054999;28;20228;-72
2021/12/07 11:07:23;;;;;;;23.90;22.33;;;7.10;66.20;;;;;;5055074;28;20196;-72
2021/12/07 11:10:01;;;;;;;23.00;21.67;;;7.10;65.80;;;;;;5055017;28;20193;-72
2021/12/07 11:12:35;;;;;;;24.00;22.25;;;7.20;65.80;;;;;;5054964;28;20208;-72
2021/12/07 11:15:10;;;;;;;21.98;20.83;;;7.20;65.30;;;;;;5054477;28;20197;-72
2021/12/07 11:17:38;;;;;;;24.35;22.90;;;7.20;65.30;;;;;;5055158;28;20196;-72
2021/12/07 11:20:07;;;;;;;23.90;22.40;;;7.20;64.30;;;;;;5054667;28;20201;-72
2021/12/07 11:22:40;;;;;;;21.90;20.45;;;7.30;63.20;;;;;;5054843;28;20283;-72
2021/12/07 11:25:09;;;;;;;23.92;22.52;;;7.00;64.10;;;;;;5054624;28;20690;-72
2021/12/07 11:30:27;;;;;;;23.17;21.65;;;7.00;63.90;;;;;;5054616;28;20281;-72
2021/12/07 11:32:59;;;;;;;21.55;20.25;;;7.00;64.60;;;;;;5054454;28;20201;-72
2021/12/07 11:35:29;;;;;;;22.50;21.10;;;7.10;64.80;;;;;;5054736;28;20271;-72
2021/12/07 11:37:57;;;;;;;22.98;21.25;;;7.40;64.80;;;;;;5054295;28;20619;-72
2021/12/07 11:40:27;;;;;;;22.15;20.75;;;7.60;64.40;;;;;;5054367;28;20215;-72
2021/12/07 11:42:54;;;;;;;23.88;22.38;;;7.60;63.90;;;;;;5053783;28;20527;-72
2021/12/07 11:45:25;;;;;;;23.17;21.85;;;7.80;63.50;;;;;;5054321;28;20193;-72
2021/12/07 11:47:56;;;;;;;24.60;22.58;;;7.90;63.40;;;;;;5054360;28;20201;-72
2021/12/07 11:50:31;;;;;;;24.10;22.60;;;8.00;63.50;;;;;;5054070;28;20694;-72
2021/12/07 11:53:03;;;;;;;23.52;21.80;;;8.00;64.60;;;;;;5054149;28;20216;-72
2021/12/07 11:55:31;;;;;;;23.98;22.40;;;8.10;63.50;;;;;;5054146;28;20196;-72
2021/12/07 11:57:59;;;;;;;24.83;23.33;;;8.00;63.70;;;;;;5054171;28;20200;-72
2021/12/07 12:00:34;;;;;;;22.75;21.20;;;8.00;64.20;;;;;;5054191;28;20307;-72
2021/12/07 12:03:03;;;;;;;24.15;22.52;;;8.00;64.30;;;;;;5053751;28;20220;-72
2021/12/07 12:05:30;;;;;;;25.67;23.52;;;8.00;65.30;;;;;;5053874;28;20654;-72
2021/12/07 12:07:57;;;;;;;23.80;21.98;;;8.00;65.30;;;;;;5053952;28;20674;-72
2021/12/07 12:10:24;;;;;;;25.55;23.58;;;8.00;65.10;;;;;;5053748;28;20200;-72
2021/12/07 12:13:07;;;;;;;24.75;22.75;;;8.00;65.70;;;;;;5053560;28;20203;-72
2021/12/07 12:15:56;;;;;;;23.50;21.85;;;8.00;65.90;;;;;;5053878;28;20614;-72
2021/12/07 12:18:45;;;;;;;23.52;22.02;;;7.90;68.80;;;;;;5053626;28;20197;-72
2021/12/07 12:21:23;;;;;;;22.92;21.67;;;8.00;67.30;;;;;;5053787;28;20200;-72
2021/12/07 12:24:00;;;;;;;23.80;22.30;;;8.00;66.80;;;;;;5053284;28;20753;-72
2021/12/07 12:26:28;;;;;;;23.98;22.58;;;8.00;69.80;;;;;;5052849;28;20208;-72
2021/12/07 12:28:56;;;;;;;23.88;22.42;;;8.10;67.20;;;;;;5053411;28;20675;-72
2021/12/07 12:31:46;;;;;;;24.63;22.67;;;8.20;66.70;;;;;;5053379;28;20209;-72
2021/12/07 12:34:20;;;;;;;24.02;22.27;;;8.30;65.50;;;;;;5053247;28;20213;-72
2021/12/07 12:37:04;;;;;;;24.17;22.35;;;8.30;66.30;;;;;;5053445;28;20683;-72
2021/12/07 12:39:51;;;;;;;24.30;22.10;;;8.30;65.90;;;;;;5052895;28;20279;-72
2021/12/07 12:42:29;;;;;;;22.95;21.65;;;8.40;66.50;;;;;;5053130;28;20694;-72
2021/12/07 12:44:59;;;;;;;24.38;22.77;;;8.30;67.30;;;;;;5052783;28;20234;-72
2021/12/07 12:47:28;;;;;;;25.13;23.38;;;8.50;65.60;;;;;;5053421;28;20208;-72
2021/12/07 12:50:09;;;;;;;24.45;22.90;;;8.40;68.10;;;;;;5053042;28;20193;-72
2021/12/07 12:52:42;;;;;;;24.42;22.73;;;8.60;65.00;;;;;;5053092;28;20287;-72
2021/12/07 12:55:29;;;;;;;24.80;23.25;;;8.60;64.90;;;;;;5053391;28;20197;-72
2021/12/07 12:57:56;;;;;;;23.80;22.15;;;8.80;63.60;;;;;;5053218;28;20207;-72
2021/12/07 13:00:24;;;;;;;23.73;22.23;;;8.90;62.40;;;;;;5053060;28;20201;-72
2021/12/07 13:02:53;;;;;;;23.92;22.38;;;8.70;62.60;;;;;;5052775;28;20211;-72
2021/12/07 13:05:36;;;;;;;23.58;22.02;;;8.60;61.90;;;;;;5052884;28;20220;-72
2021/12/07 13:08:14;;;;;;;23.73;22.33;;;8.60;61.70;;;;;;5052959;28;20287;-72
2021/12/07 13:10:56;;;;;;;23.75;22.25;;;8.60;61.30;;;;;;5052729;28;20196;-72
2021/12/07 13:13:30;;;;;;;23.30;22.08;;;8.50;63.30;;;;;;5052548;28;20279;-72
2021/12/07 13:15:57;;;;;;;22.63;21.33;;;8.60;62.00;;;;;;5052903;28;20196;-72
2021/12/07 13:18:31;;;;;;;24.13;22.60;;;8.50;63.20;;;;;;5052718;28;20203;-72
2021/12/07 13:20:59;;;;;;;23.83;22.52;;;8.50;61.70;;;;;;5052652;28;20196;-72
2021/12/07 13:23:29;;;;;;;24.10;22.55;;;8.60;62.00;;;;;;5052353;28;20727;-72
2021/12/07 13:25:56;;;;;;;23.92;22.20;;;8.70;62.40;;;;;;5052712;28;20196;-72
2021/12/07 13:28:26;;;;;;;24.73;23.30;;;8.50;63.80;;;;;;5052591;28;20203;-72
2021/12/07 13:31:12;;;;;;;23.40;22.10;;;8.50;63.20;;;;;;5052655;28;20284;-72
2021/12/07 13:33:41;;;;;;;24.45;22.80;;;8.50;63.60;;;;;;5050471;28;20753;-72
2021/12/07 13:36:34;;;;;;;24.70;23.10;;;8.40;63.20;;;;;;5052210;28;20633;-72
2021/12/07 13:39:08;;;;;;;23.00;21.80;;;8.40;63.10;;;;;;5052012;28;20200;-72
2021/12/07 13:41:35;;;;;;;24.80;23.30;;;8.30;63.30;;;;;;5052331;28;20291;-72
2021/12/07 13:44:06;;;;;;;23.80;22.40;;;8.30;63.30;;;;;;5051649;28;20227;-72
2021/12/07 13:46:32;;;;;;;24.88;23.25;;;8.20;63.80;;;;;;5052538;28;20197;-72
2021/12/07 13:49:07;;;;;;;24.17;22.52;;;8.20;64.30;;;;;;5052319;28;20196;-72
2021/12/07 13:51:37;;;;;;;24.23;22.80;;;8.10;64.90;;;;;;5052428;28;20569;-72
2021/12/07 13:54:04;;;;;;;23.77;22.17;;;8.00;65.20;;;;;;5051973;28;20773;-72
2021/12/07 13:56:34;;;;;;;25.27;23.67;;;8.00;65.90;;;;;;5052386;28;20196;-72
2021/12/07 13:59:04;;;;;;;23.27;21.98;;;7.90;65.90;;;;;;5052335;28;20678;-72
2021/12/07 14:01:34;;;;;;;24.17;22.67;;;7.70;67.40;;;;;;5052204;28;20283;-72
2021/12/07 14:04:03;;;;;;;26.10;24.30;;;7.60;67.40;;;;;;5051838;28;20243;-72
2021/12/07 14:06:30;;;;;;;23.70;22.27;;;7.60;68.60;;;;;;5052182;28;20201;-72
2021/12/07 14:09:05;;;;;;;23.60;22.20;;;7.40;67.90;;;;;;5052116;28;20291;-72
2021/12/07 14:11:33;;;;;;;24.55;23.05;;;7.30;68.40;;;;;;5052149;28;20273;-72
2021/12/07 14:14:00;;;;;;;25.13;23.25;;;7.30;68.30;;;;;;5051841;28;20226;-72
2021/12/07 14:16:29;;;;;;;24.42;22.58;;;7.20;68.60;;;;;;5051979;28;20205;-72